createdAt,value
2019-02-18T00:00:46.651Z,82.30
2019-02-18T00:03:14.197Z,82.40
2019-02-18T00:05:41.645Z,82.60
2019-02-18T00:08:08.915Z,82.50
2019-02-18T00:10:36.140Z,82.60
2019-02-18T00:13:03.343Z,82.80
2019-02-18T00:15:30.606Z,82.90
2019-02-18T00:17:57.946Z,82.70
2019-02-18T00:20:25.114Z,82.90
2019-02-18T00:22:52.197Z,83.00
2019-02-18T00:25:19.413Z,83.00
2019-02-18T00:27:46.604Z,83.40
2019-02-18T00:30:13.842Z,82.90
2019-02-18T00:32:41.013Z,83.30
2019-02-18T00:35:08.439Z,83.50
2019-02-18T00:37:35.670Z,83.40
2019-02-18T00:40:03.275Z,83.40
2019-02-18T00:42:30.437Z,83.30
2019-02-18T00:44:58.747Z,83.40
2019-02-18T00:47:25.979Z,83.00
2019-02-18T00:49:53.143Z,83.40
2019-02-18T00:52:20.382Z,83.40
2019-02-18T00:54:47.636Z,83.40
2019-02-18T00:57:15.029Z,83.10
2019-02-18T00:59:42.393Z,83.50
2019-02-18T01:02:09.813Z,83.50
2019-02-18T01:04:37.111Z,83.70
2019-02-18T01:07:05.464Z,83.60
2019-02-18T01:09:33.055Z,83.70
2019-02-18T01:12:00.451Z,83.70
2019-02-18T01:14:27.640Z,83.60
2019-02-18T01:16:54.999Z,83.50
2019-02-18T01:19:22.200Z,83.70
2019-02-18T01:21:49.451Z,83.70
2019-02-18T01:24:16.675Z,83.60
2019-02-18T01:26:43.929Z,83.80
2019-02-18T01:29:10.922Z,83.70
2019-02-18T01:31:38.075Z,83.70
2019-02-18T01:34:05.429Z,83.50
2019-02-18T01:36:32.540Z,83.80
2019-02-18T01:38:59.807Z,83.60
2019-02-18T01:41:27.096Z,83.50
2019-02-18T01:43:54.339Z,83.60
2019-02-18T01:46:21.569Z,84.00
2019-02-18T01:48:48.723Z,83.70
2019-02-18T01:51:16.109Z,84.00
2019-02-18T01:53:43.366Z,84.10
2019-02-18T01:56:10.774Z,84.20
2019-02-18T01:58:38.071Z,84.50
2019-02-18T02:01:05.339Z,84.20
2019-02-18T02:03:32.727Z,84.40
2019-02-18T02:06:00.035Z,84.40
2019-02-18T02:08:27.311Z,84.60
2019-02-18T02:10:55.537Z,84.40
2019-02-18T02:13:33.435Z,84.20
2019-02-18T02:16:10.982Z,84.50
2019-02-18T02:18:38.417Z,84.50
2019-02-18T02:21:05.590Z,84.60
2019-02-18T02:23:34.043Z,84.80
2019-02-18T02:26:01.281Z,84.90
2019-02-18T02:28:28.624Z,84.80
2019-02-18T02:30:56.004Z,84.80
2019-02-18T02:33:23.344Z,84.80
2019-02-18T02:35:50.281Z,84.90
2019-02-18T02:38:17.713Z,84.90
2019-02-18T02:40:44.889Z,85.10
2019-02-18T02:43:12.249Z,85.10
2019-02-18T02:45:40.588Z,85.00
2019-02-18T02:48:07.722Z,85.30
2019-02-18T02:50:34.948Z,85.70
2019-02-18T02:53:02.688Z,85.70
2019-02-18T02:55:30.800Z,85.80
2019-02-18T02:57:58.743Z,85.80
2019-02-18T03:00:27.575Z,85.70
2019-02-18T03:02:55.591Z,85.50
2019-02-18T03:05:23.694Z,85.10
2019-02-18T03:07:51.644Z,85.20
2019-02-18T03:10:19.616Z,85.20
2019-02-18T03:12:47.739Z,85.20
2019-02-18T03:15:15.804Z,85.00
2019-02-18T03:17:44.661Z,85.50
2019-02-18T03:20:12.856Z,84.80
2019-02-18T03:22:40.977Z,85.10
2019-02-18T03:25:35.599Z,85.10
2019-02-18T03:28:07.536Z,84.80
2019-02-18T03:30:44.396Z,85.00
2019-02-18T03:33:14.090Z,85.20
2019-02-18T03:35:41.918Z,85.00
2019-02-18T03:38:09.965Z,85.40
2019-02-18T03:40:37.917Z,85.30
2019-02-18T03:43:05.831Z,85.40
2019-02-18T03:45:33.553Z,85.40
2019-02-18T03:48:01.619Z,85.30
2019-02-18T03:50:29.983Z,85.60
2019-02-18T03:52:57.916Z,85.50
2019-02-18T03:55:26.420Z,85.70
2019-02-18T03:57:54.350Z,85.50
2019-02-18T04:00:22.293Z,85.80
2019-02-18T04:02:51.884Z,85.80
2019-02-18T04:05:19.986Z,86.00
2019-02-18T04:07:48.031Z,85.80
2019-02-18T04:10:15.743Z,85.80
2019-02-18T04:12:44.183Z,86.10
2019-02-18T04:15:11.959Z,86.30
2019-02-18T04:17:40.087Z,86.20
2019-02-18T04:20:08.334Z,86.30
2019-02-18T04:22:36.072Z,86.30
2019-02-18T04:25:04.064Z,86.30
2019-02-18T04:27:31.924Z,86.30
2019-02-18T04:29:59.729Z,86.50
2019-02-18T04:32:27.750Z,86.90
2019-02-18T04:34:56.135Z,86.70
2019-02-18T04:37:23.868Z,86.60
2019-02-18T04:39:51.730Z,86.50
2019-02-18T04:42:19.837Z,86.70
2019-02-18T04:44:47.744Z,86.80
2019-02-18T04:47:15.632Z,86.40
2019-02-18T04:49:43.639Z,86.60
2019-02-18T04:52:11.759Z,86.60
2019-02-18T04:54:39.517Z,86.80
2019-02-18T04:57:07.411Z,86.80
2019-02-18T04:59:35.204Z,86.70
2019-02-18T05:02:03.184Z,86.80
2019-02-18T05:04:31.167Z,86.90
2019-02-18T05:06:59.154Z,86.70
2019-02-18T05:09:27.242Z,86.60
2019-02-18T05:11:55.417Z,86.60
2019-02-18T05:14:23.353Z,86.80
2019-02-18T05:16:51.192Z,86.60
2019-02-18T05:19:19.401Z,86.90
2019-02-18T05:21:47.270Z,87.00
2019-02-18T05:24:15.193Z,87.10
2019-02-18T05:26:43.484Z,87.20
2019-02-18T05:29:11.467Z,86.90
2019-02-18T05:31:39.379Z,87.00
2019-02-18T05:34:07.286Z,87.20
2019-02-18T05:36:35.522Z,87.00
2019-02-18T05:39:16.899Z,87.00
2019-02-18T05:41:35.082Z,87.40
2019-02-18T05:44:03.150Z,87.60
2019-02-18T05:46:31.089Z,87.20
2019-02-18T05:48:59.433Z,87.40
2019-02-18T05:51:28.927Z,87.20
2019-02-18T05:53:57.058Z,87.70
2019-02-18T05:56:25.506Z,87.60
2019-02-18T05:58:53.548Z,87.50
2019-02-18T06:01:21.972Z,87.50
2019-02-18T06:03:49.735Z,87.20
2019-02-18T06:06:17.696Z,87.30
2019-02-18T06:08:45.702Z,87.30
2019-02-18T06:11:13.601Z,87.60
2019-02-18T06:13:41.395Z,87.40
2019-02-18T06:16:09.196Z,87.30
2019-02-18T06:18:37.164Z,87.40
2019-02-18T06:21:05.254Z,87.20
2019-02-18T06:23:33.501Z,87.40
2019-02-18T06:26:01.549Z,87.60
2019-02-18T06:28:29.825Z,87.30
2019-02-18T06:30:57.831Z,87.50
2019-02-18T06:33:28.431Z,87.60
2019-02-18T06:35:56.437Z,87.50
2019-02-18T06:38:24.526Z,87.80
2019-02-18T06:40:52.714Z,87.80
2019-02-18T06:43:20.553Z,88.00
2019-02-18T06:46:09.984Z,87.90
2019-02-18T06:48:42.982Z,87.90
2019-02-18T06:51:11.666Z,88.10
2019-02-18T06:53:39.747Z,87.90
2019-02-18T06:56:07.682Z,88.10
2019-02-18T06:58:53.681Z,88.00
2019-02-18T07:01:27.187Z,88.00
2019-02-18T07:04:08.333Z,88.20
2019-02-18T07:06:47.590Z,88.30
2019-02-18T07:09:50.447Z,88.40
2019-02-18T07:12:30.527Z,88.50
2019-02-18T07:14:58.495Z,88.70
2019-02-18T07:17:26.567Z,88.70
2019-02-18T07:19:54.557Z,88.70
2019-02-18T07:22:22.648Z,88.70
2019-02-18T07:24:50.623Z,88.90
2019-02-18T07:27:18.768Z,88.80
2019-02-18T07:29:46.686Z,88.60
2019-02-18T07:32:14.923Z,88.50
2019-02-18T07:34:42.948Z,88.30
2019-02-18T07:37:11.260Z,88.30
2019-02-18T07:39:39.209Z,88.10
2019-02-18T07:42:07.307Z,88.30
2019-02-18T07:44:35.247Z,88.20
2019-02-18T07:47:03.779Z,88.10
2019-02-18T07:49:31.899Z,87.90
2019-02-18T07:52:00.011Z,87.70
2019-02-18T07:54:27.916Z,87.80
2019-02-18T07:56:56.061Z,87.70
2019-02-18T07:59:24.189Z,87.50
2019-02-18T08:01:52.285Z,87.20
2019-02-18T08:04:20.130Z,87.10
2019-02-18T08:06:48.708Z,86.70
2019-02-18T08:09:16.518Z,86.30
2019-02-18T08:11:44.559Z,85.70
2019-02-18T08:14:12.713Z,85.20
2019-02-18T08:16:40.919Z,85.00
2019-02-18T08:19:08.957Z,84.30
2019-02-18T08:21:36.838Z,84.10
2019-02-18T08:24:04.896Z,84.00
2019-02-18T08:26:32.866Z,83.80
2019-02-18T08:29:00.779Z,83.50
2019-02-18T08:31:28.715Z,83.30
2019-02-18T08:33:56.791Z,82.90
2019-02-18T08:36:26.410Z,82.80
2019-02-18T08:38:54.658Z,82.60
2019-02-18T08:41:22.664Z,82.60
2019-02-18T08:43:50.398Z,82.50
2019-02-18T08:46:18.468Z,82.40
2019-02-18T08:48:46.563Z,81.90
2019-02-18T08:51:14.690Z,81.40
2019-02-18T08:53:42.964Z,81.40
2019-02-18T08:56:11.250Z,81.40
2019-02-18T08:58:39.199Z,81.30
2019-02-18T09:01:07.294Z,81.20
2019-02-18T09:03:34.596Z,80.60
2019-02-18T09:06:01.800Z,80.40
2019-02-18T09:08:29.141Z,79.90
2019-02-18T09:10:56.481Z,79.30
2019-02-18T09:13:23.851Z,79.20
2019-02-18T09:15:59.667Z,79.10
2019-02-18T09:18:21.169Z,79.10
2019-02-18T09:20:48.571Z,78.90
2019-02-18T09:23:33.869Z,78.30
2019-02-18T09:26:02.562Z,78.00
2019-02-18T09:28:29.898Z,77.80
2019-02-18T09:30:57.492Z,77.90
2019-02-18T09:33:24.802Z,77.80
2019-02-18T09:35:52.070Z,77.40
2019-02-18T09:38:25.057Z,77.10
2019-02-18T09:40:51.518Z,77.00
2019-02-18T09:43:18.518Z,76.50
2019-02-18T09:45:45.919Z,76.10
2019-02-18T09:48:13.284Z,75.80
2019-02-18T09:50:40.660Z,75.80
2019-02-18T09:53:09.110Z,75.30
2019-02-18T09:55:36.357Z,75.50
2019-02-18T09:58:03.588Z,75.30
2019-02-18T10:00:30.999Z,74.50
2019-02-18T10:02:58.272Z,73.60
2019-02-18T10:05:25.621Z,73.10
2019-02-18T10:07:53.248Z,73.20
2019-02-18T10:10:20.599Z,72.50
2019-02-18T10:12:47.920Z,72.30
2019-02-18T10:15:15.128Z,71.90
2019-02-18T10:17:42.649Z,71.20
2019-02-18T10:20:09.885Z,70.30
2019-02-18T10:22:37.116Z,69.70
2019-02-18T10:25:05.035Z,69.60
2019-02-18T10:27:32.288Z,68.70
2019-02-18T10:29:59.528Z,68.40
2019-02-18T10:32:26.856Z,66.90
2019-02-18T10:34:54.086Z,66.80
2019-02-18T10:37:21.528Z,67.10
2019-02-18T10:39:48.643Z,67.70
2019-02-18T10:42:15.766Z,67.00
2019-02-18T10:44:42.962Z,66.60
2019-02-18T10:47:10.190Z,66.40
2019-02-18T10:49:38.274Z,66.30
2019-02-18T10:52:05.699Z,66.90
2019-02-18T10:54:33.132Z,66.70
2019-02-18T10:57:00.334Z,66.60
2019-02-18T10:59:27.809Z,67.10
2019-02-18T11:01:55.138Z,67.40
2019-02-18T11:04:22.390Z,67.10
2019-02-18T11:06:49.594Z,67.10
2019-02-18T11:09:16.942Z,66.40
2019-02-18T11:11:44.044Z,66.60
2019-02-18T11:14:11.301Z,66.10
2019-02-18T11:16:40.345Z,65.40
2019-02-18T11:19:07.701Z,65.50
2019-02-18T11:21:36.064Z,65.30
2019-02-18T11:24:03.274Z,65.70
2019-02-18T11:26:30.614Z,65.40
2019-02-18T11:28:57.705Z,64.00
2019-02-18T11:31:25.428Z,63.60
2019-02-18T11:33:52.550Z,62.40
2019-02-18T11:36:19.823Z,61.70
2019-02-18T11:38:46.954Z,61.60
2019-02-18T11:41:14.311Z,61.00
2019-02-18T11:43:41.528Z,60.70
2019-02-18T11:46:08.981Z,60.90
2019-02-18T11:48:36.587Z,60.70
2019-02-18T11:51:03.961Z,60.30
2019-02-18T11:53:31.297Z,60.20
2019-02-18T11:55:58.557Z,59.40
2019-02-18T11:58:25.915Z,59.40
2019-02-18T12:00:53.159Z,59.10
2019-02-18T12:03:20.433Z,58.20
2019-02-18T12:05:47.657Z,58.20
2019-02-18T12:08:14.738Z,57.90
2019-02-18T12:10:42.133Z,57.50
2019-02-18T12:13:09.343Z,57.10
2019-02-18T12:15:36.951Z,56.50
2019-02-18T12:18:04.166Z,56.40
2019-02-18T12:20:31.805Z,55.80
2019-02-18T12:22:59.232Z,56.80
2019-02-18T12:25:26.559Z,57.20
2019-02-18T12:27:53.898Z,56.90
2019-02-18T12:30:21.179Z,56.30
2019-02-18T12:32:48.445Z,56.30
2019-02-18T12:35:15.893Z,56.10
2019-02-18T12:37:43.274Z,56.50
2019-02-18T12:40:10.610Z,55.80
2019-02-18T12:42:37.909Z,56.10
2019-02-18T12:45:06.280Z,56.00
2019-02-18T12:47:33.963Z,55.80
2019-02-18T12:50:01.329Z,55.20
2019-02-18T12:52:28.755Z,55.20
2019-02-18T12:54:56.109Z,55.10
2019-02-18T12:57:23.664Z,55.00
2019-02-18T12:59:51.674Z,55.20
2019-02-18T13:02:19.072Z,55.00
2019-02-18T13:04:46.368Z,54.80
2019-02-18T13:07:13.639Z,54.10
2019-02-18T13:09:42.237Z,54.90
2019-02-18T13:12:09.580Z,55.10
2019-02-18T13:14:36.920Z,55.50
2019-02-18T13:17:04.352Z,55.10
2019-02-18T13:19:31.814Z,55.70
2019-02-18T13:21:59.471Z,55.80
2019-02-18T13:24:26.863Z,55.30
2019-02-18T13:26:54.177Z,54.20
2019-02-18T13:29:21.375Z,55.50
2019-02-18T13:31:48.472Z,55.30
2019-02-18T13:34:15.877Z,55.20
2019-02-18T13:36:43.354Z,54.90
2019-02-18T13:39:10.787Z,55.20
2019-02-18T13:41:38.567Z,54.90
2019-02-18T13:44:05.946Z,55.10
2019-02-18T13:46:33.195Z,55.40
2019-02-18T13:49:00.380Z,54.30
2019-02-18T13:51:27.777Z,53.80
2019-02-18T13:53:54.888Z,54.10
2019-02-18T13:56:22.098Z,54.40
2019-02-18T13:58:49.709Z,55.20
2019-02-18T14:01:16.975Z,54.30
2019-02-18T14:03:44.361Z,54.10
2019-02-18T14:06:11.729Z,54.20
2019-02-18T14:08:39.083Z,54.30
2019-02-18T14:11:06.533Z,54.80
2019-02-18T14:13:33.838Z,55.20
2019-02-18T14:16:02.326Z,55.50
2019-02-18T14:18:29.681Z,55.10
2019-02-18T14:20:56.914Z,54.90
2019-02-18T14:23:24.122Z,55.20
2019-02-18T14:25:51.438Z,55.40
2019-02-18T14:28:18.799Z,54.90
2019-02-18T14:30:46.416Z,54.80
2019-02-18T14:33:14.195Z,54.50
2019-02-18T14:35:41.666Z,54.20
2019-02-18T14:38:09.075Z,54.10
2019-02-18T14:40:36.527Z,54.40
2019-02-18T14:43:03.742Z,54.50
2019-02-18T14:45:31.128Z,53.90
2019-02-18T14:47:58.589Z,53.60
2019-02-18T14:50:26.163Z,53.50
2019-02-18T14:52:53.448Z,53.70
2019-02-18T14:55:20.792Z,53.10
2019-02-18T14:57:48.176Z,52.90
2019-02-18T15:00:20.406Z,53.00
2019-02-18T15:02:48.604Z,52.70
2019-02-18T15:05:15.868Z,52.60
2019-02-18T15:07:43.943Z,52.50
2019-02-18T15:10:12.429Z,52.50
2019-02-18T15:12:40.773Z,52.30
2019-02-18T15:15:08.295Z,51.80
2019-02-18T15:17:35.687Z,51.40
2019-02-18T15:20:03.088Z,50.80
2019-02-18T15:22:30.428Z,50.70
2019-02-18T15:24:57.978Z,50.90
2019-02-18T15:27:25.227Z,50.20
2019-02-18T15:29:52.539Z,50.00
2019-02-18T15:32:19.927Z,49.80
2019-02-18T15:34:47.386Z,49.90
2019-02-18T15:37:14.626Z,49.50
2019-02-18T15:39:41.941Z,49.00
2019-02-18T15:42:09.627Z,49.20
2019-02-18T15:44:37.263Z,49.50
2019-02-18T15:47:04.776Z,49.90
2019-02-18T15:49:32.171Z,49.80
2019-02-18T15:51:59.411Z,49.40
2019-02-18T15:54:26.766Z,49.40
2019-02-18T15:56:54.514Z,49.40
2019-02-18T15:59:22.125Z,49.40
2019-02-18T16:01:49.390Z,49.70
2019-02-18T16:04:16.608Z,49.50
2019-02-18T16:06:43.986Z,49.60
2019-02-18T16:09:11.320Z,49.80
2019-02-18T16:11:38.921Z,49.90
2019-02-18T16:14:06.224Z,50.00
2019-02-18T16:16:34.011Z,49.70
2019-02-18T16:19:01.342Z,49.50
2019-02-18T16:21:28.796Z,49.80
2019-02-18T16:23:56.288Z,50.20
2019-02-18T16:26:23.680Z,50.30
2019-02-18T16:28:51.053Z,50.30
2019-02-18T16:31:18.250Z,50.30
2019-02-18T16:33:45.674Z,50.10
2019-02-18T16:36:13.201Z,50.30
2019-02-18T16:38:40.440Z,50.70
2019-02-18T16:41:07.696Z,51.50
2019-02-18T16:43:35.567Z,53.50
2019-02-18T16:46:02.926Z,54.60
2019-02-18T16:48:30.579Z,54.20
2019-02-18T16:50:58.144Z,55.00
2019-02-18T16:53:25.699Z,55.00
2019-02-18T16:55:53.085Z,55.00
2019-02-18T16:58:20.414Z,56.60
2019-02-18T17:00:47.505Z,57.50
2019-02-18T17:03:14.810Z,56.80
2019-02-18T17:05:42.141Z,58.70
2019-02-18T17:08:11.211Z,58.50
2019-02-18T17:10:38.495Z,59.40
2019-02-18T17:13:08.300Z,59.30
2019-02-18T17:15:35.219Z,59.70
2019-02-18T17:18:02.475Z,59.30
2019-02-18T17:20:29.689Z,58.90
2019-02-18T17:22:57.029Z,61.70
2019-02-18T17:25:26.083Z,60.30
2019-02-18T17:27:53.539Z,60.10
2019-02-18T17:30:20.888Z,60.40
2019-02-18T17:32:48.217Z,60.10
2019-02-18T17:35:15.585Z,60.00
2019-02-18T17:37:43.512Z,60.20
2019-02-18T17:40:11.209Z,62.10
2019-02-18T17:42:39.076Z,62.20
2019-02-18T17:45:08.366Z,62.10
2019-02-18T17:47:35.762Z,62.50
2019-02-18T17:50:03.524Z,63.30
2019-02-18T17:52:31.011Z,63.90
2019-02-18T17:54:58.234Z,64.50
2019-02-18T17:57:25.459Z,64.60
2019-02-18T17:59:52.807Z,64.50
2019-02-18T18:02:20.537Z,64.00
2019-02-18T18:04:47.993Z,63.70
2019-02-18T18:07:15.198Z,63.90
2019-02-18T18:09:42.505Z,63.70
2019-02-18T18:12:10.018Z,63.80
2019-02-18T18:14:37.405Z,63.70
2019-02-18T18:17:06.717Z,63.90
2019-02-18T18:19:34.058Z,63.70
2019-02-18T18:22:01.524Z,63.70
2019-02-18T18:24:28.775Z,63.70
2019-02-18T18:26:55.991Z,63.90
2019-02-18T18:29:23.203Z,64.60
2019-02-18T18:31:50.706Z,64.60
2019-02-18T18:34:18.429Z,65.20
2019-02-18T18:36:46.090Z,65.70
2019-02-18T18:39:13.341Z,65.60
2019-02-18T18:41:40.663Z,66.30
2019-02-18T18:44:08.074Z,67.10
2019-02-18T18:46:35.382Z,67.60
2019-02-18T18:49:02.560Z,67.90
2019-02-18T18:51:29.806Z,67.30
2019-02-18T18:53:57.113Z,68.80
2019-02-18T18:56:24.452Z,68.70
2019-02-18T18:58:51.702Z,69.00
2019-02-18T19:01:19.428Z,68.60
2019-02-18T19:03:47.116Z,69.10
2019-02-18T19:06:14.465Z,68.70
2019-02-18T19:08:42.021Z,69.20
2019-02-18T19:11:09.284Z,69.70
2019-02-18T19:13:41.877Z,69.60
2019-02-18T19:16:05.923Z,69.80
2019-02-18T19:18:33.045Z,69.40
2019-02-18T19:21:00.259Z,69.50
2019-02-18T19:23:28.688Z,70.40
2019-02-18T19:25:56.208Z,70.30
2019-02-18T19:28:23.806Z,70.50
2019-02-18T19:30:51.198Z,70.50
2019-02-18T19:33:19.107Z,69.80
2019-02-18T19:35:47.068Z,68.90
2019-02-18T19:38:14.363Z,69.30
2019-02-18T19:40:41.711Z,69.70
2019-02-18T19:43:09.087Z,70.70
2019-02-18T19:45:36.322Z,70.20
2019-02-18T19:48:03.534Z,69.50
2019-02-18T19:50:30.861Z,69.10
2019-02-18T19:52:58.132Z,69.20
2019-02-18T19:55:25.589Z,69.20
2019-02-18T19:57:53.105Z,69.50
2019-02-18T20:00:21.013Z,69.40
2019-02-18T20:02:48.373Z,70.50
2019-02-18T20:05:15.729Z,71.50
2019-02-18T20:07:44.225Z,71.80
2019-02-18T20:10:12.333Z,71.80
2019-02-18T20:12:39.639Z,71.50
2019-02-18T20:15:08.079Z,71.60
2019-02-18T20:17:35.400Z,72.50
2019-02-18T20:20:03.110Z,72.60
2019-02-18T20:22:31.918Z,72.80
2019-02-18T20:24:58.989Z,73.10
2019-02-18T20:27:26.569Z,73.40
2019-02-18T20:29:53.997Z,73.30
2019-02-18T20:32:21.764Z,73.60
2019-02-18T20:34:49.257Z,73.20
2019-02-18T20:37:16.749Z,72.80
2019-02-18T20:39:44.109Z,72.70
2019-02-18T20:42:11.513Z,72.90
2019-02-18T20:44:40.074Z,72.90
2019-02-18T20:47:07.358Z,72.90
2019-02-18T20:49:35.049Z,73.50
2019-02-18T20:52:02.126Z,73.80
2019-02-18T20:54:29.385Z,74.00
2019-02-18T20:56:56.646Z,74.20
2019-02-18T20:59:24.010Z,74.60
2019-02-18T21:01:51.532Z,74.50
2019-02-18T21:04:18.762Z,74.70
2019-02-18T21:06:46.933Z,75.20
2019-02-18T21:09:14.523Z,75.20
2019-02-18T21:11:41.641Z,75.10
2019-02-18T21:14:15.861Z,75.40
2019-02-18T21:16:38.028Z,75.60
2019-02-18T21:19:05.225Z,75.90
2019-02-18T21:21:32.570Z,75.80
2019-02-18T21:23:59.951Z,76.20
2019-02-18T21:26:27.044Z,76.50
2019-02-18T21:28:54.305Z,76.40
2019-02-18T21:31:21.449Z,76.80
2019-02-18T21:33:48.778Z,76.20
2019-02-18T21:36:15.889Z,76.20
2019-02-18T21:38:43.362Z,76.00
2019-02-18T21:41:11.072Z,75.80
2019-02-18T21:43:38.245Z,75.70
2019-02-18T21:46:05.446Z,75.60
2019-02-18T21:48:32.567Z,75.80
2019-02-18T21:50:59.904Z,76.20
2019-02-18T21:53:27.215Z,76.50
2019-02-18T21:55:54.484Z,76.50
2019-02-18T21:58:22.130Z,76.50
2019-02-18T22:00:49.396Z,76.40
2019-02-18T22:03:17.800Z,76.70
2019-02-18T22:05:45.424Z,76.80
2019-02-18T22:08:12.698Z,77.10
2019-02-18T22:10:39.968Z,77.10
2019-02-18T22:13:07.191Z,77.30
2019-02-18T22:15:34.835Z,77.40
2019-02-18T22:18:02.184Z,77.60
2019-02-18T22:20:29.521Z,77.80
2019-02-18T22:22:56.753Z,78.10
2019-02-18T22:25:24.073Z,77.90
2019-02-18T22:27:51.280Z,78.20
2019-02-18T22:30:18.487Z,78.40
2019-02-18T22:32:45.846Z,78.40
2019-02-18T22:35:14.787Z,78.20
2019-02-18T22:37:43.337Z,78.70
2019-02-18T22:40:10.727Z,78.90
2019-02-18T22:42:38.090Z,79.10
2019-02-18T22:45:05.453Z,79.10
2019-02-18T22:47:32.912Z,79.20
2019-02-18T22:50:00.299Z,79.30
2019-02-18T22:52:27.750Z,79.20
2019-02-18T22:54:55.011Z,79.40
2019-02-18T22:57:22.324Z,79.60
2019-02-18T22:59:49.666Z,79.60
2019-02-18T23:02:16.978Z,79.80
2019-02-18T23:04:44.329Z,79.90
2019-02-18T23:07:11.382Z,80.00
2019-02-18T23:09:38.624Z,80.20
2019-02-18T23:12:06.521Z,80.40
2019-02-18T23:14:34.168Z,80.60
2019-02-18T23:17:01.486Z,81.10
2019-02-18T23:19:28.693Z,81.10
2019-02-18T23:21:56.063Z,81.20
2019-02-18T23:24:23.427Z,81.10
2019-02-18T23:26:50.753Z,81.10
2019-02-18T23:29:18.095Z,81.30
2019-02-18T23:31:45.761Z,81.20
2019-02-18T23:34:13.082Z,81.30
2019-02-18T23:36:40.352Z,81.20
2019-02-18T23:39:08.030Z,81.40
2019-02-18T23:41:36.311Z,81.70
2019-02-18T23:44:03.830Z,81.70
2019-02-18T23:46:31.022Z,81.50
2019-02-18T23:48:58.178Z,81.90
2019-02-18T23:51:25.531Z,82.10
2019-02-18T23:53:52.762Z,82.20
2019-02-18T23:56:21.101Z,82.30
2019-02-18T23:58:48.389Z,82.00
